Accedi per prenotare

Caricamento...

Situazione Metar e Taf aeroporto Pisa - Effemeridi Aeroporto Lucca

[Source: ADDS]
METAR
LIRP 022215Z 13005KT CAVOK 19/18 Q1015 NOSIG =
LIRP 021700Z 0218/0318 25010KT 9999 FEW040 PROB30 TEMPO 0309/0312 7000 TSRA FEW030CB SCT040
TAF
LIRP 021700Z 0218/0318 25010KT 9999 FEW040 PROB30 TEMPO 0309/0312 7000 TSRA FEW030CB SCT040 =
SR / SS: 04:12 / 18:40 UTC (Effemeridi LIQL 2021-08-02)